• Join FlightAware (Why Join?)
  • Login
  • US Flag 
Rudolph Flight #1: Arrived! 
08:07AM EST


 

Airport Tracker/Info


-or-


 

Live Flight TrackerFlight Track Log ✈ SWA1199 ✈ 10-May-2014 ✈ KLAX - KLAS

Flight Track Log - Related Links

Times and Time Zones

All times are in EDT time to prevent confusion due to time zone crossing. See the SWA1199 flight status page for this flight to view local times or setup timezone preferences in your user account.

Time Position Orientation Groundspeed Altitude Reporting Facility
EDT Latitude Longitude Course Direction KTS MPH feet Rate Location/Type
10:03AM 33.9447 -118.4464 226° Southwest 170 196 1,500  Level Los Angeles Center
10:04AM 33.8975 -118.5050 226° Southwest 238 274 3,700 2,820 Climbing Los Angeles Center
10:05AM 33.8381 -118.5625 219° Southwest 271 312 7,300 3,420 Climbing Los Angeles Center
10:06AM 33.7500 -118.5400 168° South 325 374 10,700 3,060 Climbing Los Angeles Center
10:07AM 33.6806 -118.4622 137° Southeast 377 434 13,600 2,820 Climbing Los Angeles Center
10:08AM 33.6761 -118.3439 93° East 383 441 16,500 2,580 Climbing Los Angeles Center
10:09AM 33.7219 -118.2272 65° Northeast 400 460 18,900 2,640 Climbing Los Angeles Center
10:10AM 33.7778 -118.0736 66° East 420 483 21,900 2,640 Climbing Los Angeles Center
10:11AM 33.8644 -117.9808 42° Northeast 422 486 24,300 2,580 Climbing Los Angeles Center
10:12AM 33.9564 -117.8978 37° Northeast 419 482 27,200 2,280 Climbing Los Angeles Center
10:13AM 34.0472 -117.8153 37° Northeast 413 475 29,000 840 Climbing Los Angeles Center
10:14AM 34.1336 -117.7186 43° Northeast 426 490 29,000  Level Los Angeles Center
10:15AM 34.2167 -117.6050 49° Northeast 447 514 29,000  Level Los Angeles Center
10:16AM 34.3022 -117.4892 48° Northeast 457 526 29,000  Level Los Angeles Center
10:17AM 34.3894 -117.3661 49° Northeast 456 525 29,000  Level Los Angeles Center
10:18AM 34.4719 -117.2547 48° Northeast 449 517 29,000  Level Los Angeles Center
10:19AM 34.5528 -117.1433 49° Northeast 447 514 29,000 -300 Level Los Angeles Center
10:20AM 34.6339 -117.0317 49° Northeast 446 513 28,500 -900 Descending Los Angeles Center
10:21AM 34.7314 -116.8964 49° Northeast 446 513 27,200 -1,140 Descending Los Angeles Center
10:22AM 34.8103 -116.7861 49° Northeast 439 505 26,200 -1,020 Descending Los Angeles Center
10:23AM 34.8889 -116.6781 48° Northeast 434 499 25,200 -1,020 Descending Los Angeles Center
10:24AM 34.9653 -116.5708 49° Northeast 423 487 24,200 -600 Descending Los Angeles Center
10:25AM 35.0456 -116.4717 45° Northeast 415 478 24,000 -120 Descending Los Angeles Center
10:26AM 35.1242 -116.3728 46° Northeast 408 470 24,000  Level Los Angeles Center
10:27AM 35.2164 -116.2614 45° Northeast 410 472 24,000 -780 Level Los Angeles Center
10:28AM 35.2844 -116.1725 47° Northeast 414 476 22,500 -1,860 Descending Los Angeles Center
10:29AM 35.3747 -116.0564 46° Northeast 398 458 20,200 -2,100 Descending Los Angeles Center
10:30AM 35.4514 -115.9608 45° Northeast 397 457 18,300 -1,860 Descending Los Angeles Center
10:31AM 35.5239 -115.8678 46° Northeast 389 448 16,400 -1,860 Descending Los Angeles Center
10:32AM 35.5956 -115.7789 45° Northeast 378 435 14,500 -1,740 Descending Los Angeles Center
10:33AM 35.6650 -115.6944 45° Northeast 355 409 13,100 -780 Descending Los Angeles Center
10:34AM 35.7294 -115.6128 46° Northeast 325 374 13,100  Level Los Angeles Center
10:35AM 35.8069 -115.5719 23° Northeast 311 358 13,100 -60 Level Los Angeles Center
10:36AM 35.8858 -115.5675 North 310 357 13,000 -120 Descending Los Angeles Center
10:36AM 35.9061 -115.5647 North 316 364 13,000  Level Los Angeles Center
10:37AM 35.9628 -115.5533 North 270 311 13,000  Level Los Angeles Center
10:37AM 35.9800 -115.5311 46° Northeast 277 319 13,000 -360 Level Los Angeles Center
10:38AM 35.9983 -115.4781 67° East 275 316 12,700 -720 Descending Los Angeles Center
10:38AM 36.0089 -115.4433 69° East 277 319 12,300 -1,020 Descending Los Angeles Center
10:39AM 36.0267 -115.3892 68° East 278 320 11,700 -1,020 Descending Los Angeles Center
10:40AM 36.0297 -115.3547 84° East 267 307 11,300 -1,140 Descending Los Angeles Center
10:40AM 36.0247 -115.2994 96° East 266 306 10,600 -1,080 Descending Los Angeles Center
10:41AM 36.0225 -115.2583 94° East 264 304 10,200 -1,020 Descending Los Angeles Center
10:41AM 36.0194 -115.2056 94° East 255 293 9,600 -1,020 Descending Los Angeles Center
10:42AM 36.0172 -115.1722 95° East 257 296 9,200 -900 Descending Los Angeles Center
10:42AM 36.0131 -115.1172 95° East 238 274 8,600 -900 Descending Los Angeles Center
10:43AM 36.0117 -115.0858 93° East 239 275 8,300 -840 Descending Los Angeles Center
10:43AM 36.0083 -115.0364 95° East 234 269 7,800 -900 Descending Los Angeles Center
10:44AM 36.0067 -115.0050 94° East 238 274 7,400 -840 Descending Los Angeles Center
10:44AM 36.0017 -114.9561 97° East 217 250 7,000 -720 Descending Los Angeles Center
10:45AM 36.0036 -114.9339 84° East 211 243 6,700 -900 Descending Los Angeles Center
10:45AM 36.0356 -114.9236 15° North 166 191 6,000 -1,020 Descending Los Angeles Center
10:46AM 36.0503 -114.9314 337° Northwest 171 197 5,700 -1,200 Descending Los Angeles Center
10:46AM 36.0706 -114.9544 317° Northwest 168 193 4,900 -1,320 Descending Los Angeles Center
10:47AM 36.0736 -114.9767 280° West 166 191 4,400 -1,020 Descending Los Angeles Center
10:47AM 36.0744 -115.0117 272° West 169 194 3,900 -900 Descending Los Angeles Center
10:48AM 36.0739 -115.0367 268° West 164 189 3,500 -840 Descending Los Angeles Center
10:48AM 36.0731 -115.0653 268° West 154 177 3,100 -840 Descending Los Angeles Center
10:49AM 36.0733 -115.0878 271° West 153 176 2,700 -840 Descending Los Angeles Center
10:49AM 36.0733 -115.1158 270° West 149 171 2,300 -600 Descending Los Angeles Center
10:50AM 36.0728 -115.1344 268° West 151 174 2,100 -480 Descending Los Angeles Center
10:52AM 36.0667 -115.1500 270° West  Level FlightAware Approximate